aviador You're here:

OIIE Decoded Metar

ABYEK in IRAN
Report Time2017-09-20 16:00:00
UTC Time2017-09-20 16:34:35
Flight Rules vfr VFR
Wind110° at 06 kt
W.Decomp.*RWY 11: 6.0 kt HW 0.4 kt LCW
W.Rank110° ranks 11
Current wind is below 110° avg. (8.2)
Visibility9999 m
Phenomena:N/A
Clouds:N/A
Expected CloudBase > 14,000 ft AGL from Temp-Dew spread
CeilingNone
Temp28°C (ISA +20)
Dew Point-7°C (9% RH)
Heat Index26.6°C
AAT23.0°C
QNH1015 hPa
Density Alt5,522 ft
Elevation3,304 ft
Report Wrong Elevation
Raw Report
METAR OIIE 201600Z 11006KT CAVOK 28/M07 Q1015=

Extra information for OIIE:More info

Metar Taf Metar & Taf Last 4 Metars F.Rules Stats Wind Profile Meteogram Temp Stats Airport Information Weather charts Add Link Nearby VenuesMetar ALERT Operation Metar Decoded Social comments